Time;durP1;ratioP1;P1;durP2;ratioP2;P2;SDS_P1;SDS_P2;PMS_P1;PMS_P2;Temp;Humidity;BMP_temperature;BMP_pressure;BME280_temperature;BME280_humidity;BME280_pressure;Samples;Min_cycle;Max_cycle;Signal;HPM_P1;HPM_P2
2021/12/14 00:01:35;;;;;;;13.60;10.55;;;8.60;99.90;;;;;;4997607;28;20045;-72
2021/12/14 00:04:20;;;;;;;15.27;10.50;;;8.60;99.90;;;;;;4981474;28;20121;-72
2021/12/14 00:06:48;;;;;;;14.05;10.57;;;8.60;99.90;;;;;;4997644;28;20038;-72
2021/12/14 00:09:24;;;;;;;13.63;9.85;;;8.60;99.90;;;;;;4997744;28;20073;-72
2021/12/14 00:12:10;;;;;;;12.43;9.80;;;8.60;99.90;;;;;;4997813;28;20050;-72
2021/12/14 00:17:11;;;;;;;14.82;10.65;;;8.60;99.90;;;;;;4997649;28;20050;-72
2021/12/14 00:19:37;;;;;;;16.00;10.32;;;8.60;99.90;;;;;;4997345;28;20502;-72
2021/12/14 00:22:18;;;;;;;12.52;9.88;;;8.60;99.90;;;;;;4997302;28;20041;-72
2021/12/14 00:24:43;;;;;;;14.10;9.77;;;8.60;99.90;;;;;;4997477;28;20126;-71
2021/12/14 00:27:11;;;;;;;12.95;10.35;;;8.60;99.90;;;;;;4997237;28;20541;-72
2021/12/14 00:29:46;;;;;;;13.15;10.10;;;8.60;99.90;;;;;;4997126;28;20029;-72
2021/12/14 00:32:19;;;;;;;15.75;10.75;;;8.60;99.90;;;;;;4997166;28;20044;-72
2021/12/14 00:34:45;;;;;;;12.85;10.73;;;8.60;99.90;;;;;;4996921;28;20406;-72
2021/12/14 00:37:17;;;;;;;14.73;10.77;;;8.60;99.90;;;;;;4997011;28;20045;-72
2021/12/14 00:39:44;;;;;;;14.65;10.95;;;8.50;99.90;;;;;;4997051;28;20037;-72
2021/12/14 00:42:11;;;;;;;13.77;11.23;;;8.60;99.90;;;;;;4996939;28;20049;-72
2021/12/14 00:44:37;;;;;;;16.23;11.35;;;8.50;99.90;;;;;;4996158;28;20081;-72
2021/12/14 00:47:04;;;;;;;17.00;11.80;;;8.50;99.90;;;;;;4997064;28;20521;-72
2021/12/14 00:49:30;;;;;;;15.68;12.20;;;8.60;99.90;;;;;;4996735;28;20124;-72
2021/12/14 00:51:56;;;;;;;16.58;11.90;;;8.50;99.90;;;;;;4996729;28;20073;-72
2021/12/14 00:54:23;;;;;;;14.77;11.57;;;8.50;99.90;;;;;;4996801;28;20075;-72
2021/12/14 00:56:50;;;;;;;13.52;11.43;;;8.50;99.90;;;;;;4996563;28;20034;-72
2021/12/14 00:59:17;;;;;;;15.07;11.93;;;8.50;99.90;;;;;;4996897;28;20038;-72
2021/12/14 01:01:47;;;;;;;14.38;11.30;;;8.50;99.90;;;;;;4996783;28;20064;-72
2021/12/14 01:04:19;;;;;;;17.70;12.00;;;8.50;99.90;;;;;;4996397;28;20042;-72
2021/12/14 01:06:46;;;;;;;14.25;11.55;;;8.50;99.90;;;;;;4996416;28;20125;-72
2021/12/14 01:09:16;;;;;;;14.93;12.93;;;8.50;99.90;;;;;;4996425;28;20532;-72
2021/12/14 01:11:45;;;;;;;14.95;12.30;;;8.50;99.90;;;;;;4997763;28;20374;-72
2021/12/14 01:14:30;;;;;;;16.25;12.50;;;8.50;99.90;;;;;;4996138;28;20120;-72
2021/12/14 01:17:13;;;;;;;17.65;14.02;;;8.60;99.90;;;;;;4996296;28;20052;-72
2021/12/14 01:19:49;;;;;;;15.65;12.85;;;8.50;99.90;;;;;;4980216;28;20034;-72
2021/12/14 01:22:37;;;;;;;15.90;12.75;;;8.50;99.90;;;;;;4996295;28;20030;-72
2021/12/14 01:25:13;;;;;;;17.80;13.98;;;8.50;99.90;;;;;;4979937;28;20387;-72
2021/12/14 01:27:48;;;;;;;17.42;13.75;;;8.50;99.90;;;;;;4996122;28;20046;-72
2021/12/14 01:33:26;;;;;;;18.77;14.05;;;8.50;99.90;;;;;;4996004;28;20049;-72
2021/12/14 01:35:53;;;;;;;16.55;14.10;;;8.50;99.90;;;;;;4995891;28;20049;-72
2021/12/14 01:40:57;;;;;;;19.90;14.50;;;8.50;99.90;;;;;;4995966;28;20124;-72
2021/12/14 01:43:32;;;;;;;20.52;15.27;;;8.50;99.90;;;;;;4995958;28;20470;-72
2021/12/14 01:46:01;;;;;;;19.08;15.50;;;8.50;99.90;;;;;;4996652;28;20050;-72
2021/12/14 01:48:28;;;;;;;21.77;16.13;;;8.50;99.90;;;;;;4995873;28;20458;-72
2021/12/14 01:50:57;;;;;;;18.42;14.50;;;8.50;99.90;;;;;;4996095;28;20049;-72
2021/12/14 01:53:24;;;;;;;21.83;14.90;;;8.50;99.90;;;;;;4995785;28;20124;-72
2021/12/14 01:55:55;;;;;;;19.83;15.77;;;8.50;99.90;;;;;;4995616;28;20100;-72
2021/12/14 01:58:23;;;;;;;19.45;16.15;;;8.50;99.90;;;;;;4995768;28;20133;-72
2021/12/14 02:00:54;;;;;;;20.63;16.90;;;8.50;99.90;;;;;;4995993;28;20049;-72
2021/12/14 02:03:27;;;;;;;18.88;15.43;;;8.50;99.90;;;;;;4996061;28;20052;-72
2021/12/14 02:05:53;;;;;;;21.10;16.13;;;8.50;99.90;;;;;;4995696;28;20042;-72
2021/12/14 02:08:23;;;;;;;19.35;16.50;;;8.50;99.90;;;;;;4995730;28;20053;-72
2021/12/14 02:10:49;;;;;;;18.42;15.80;;;8.50;99.90;;;;;;4995882;28;20571;-72
2021/12/14 02:13:33;;;;;;;19.75;16.63;;;8.50;99.90;;;;;;4995898;28;20207;-72
2021/12/14 02:16:05;;;;;;;23.17;16.65;;;8.50;99.90;;;;;;4996195;28;20057;-72
2021/12/14 02:18:32;;;;;;;22.85;16.05;;;8.40;99.90;;;;;;4995631;28;20037;-71
2021/12/14 02:21:07;;;;;;;20.70;16.85;;;8.40;99.90;;;;;;4995603;28;20506;-71
2021/12/14 02:23:39;;;;;;;21.85;16.30;;;8.40;99.90;;;;;;4995803;28;20112;-72
2021/12/14 02:26:07;;;;;;;22.42;17.70;;;8.40;99.90;;;;;;4995490;28;20054;-72
2021/12/14 02:28:34;;;;;;;21.52;16.33;;;8.40;99.90;;;;;;4995484;28;20057;-72
2021/12/14 02:31:01;;;;;;;21.90;16.20;;;8.40;99.90;;;;;;4995706;28;20460;-72
2021/12/14 02:33:34;;;;;;;21.77;16.75;;;8.40;99.90;;;;;;4995401;28;20121;-72
2021/12/14 02:36:03;;;;;;;21.40;16.45;;;8.40;99.90;;;;;;4995469;28;20418;-71
2021/12/14 02:38:29;;;;;;;23.30;16.95;;;8.50;99.90;;;;;;4995416;28;20042;-71
2021/12/14 02:41:02;;;;;;;20.63;16.42;;;8.50;99.90;;;;;;4995397;28;20045;-71
2021/12/14 02:43:31;;;;;;;19.88;16.40;;;8.50;99.90;;;;;;4995439;28;20494;-71
2021/12/14 02:46:14;;;;;;;20.27;16.73;;;8.50;99.90;;;;;;4995267;28;20133;-72
2021/12/14 02:48:42;;;;;;;22.90;17.80;;;8.50;99.90;;;;;;4995371;28;20077;-72
2021/12/14 02:51:15;;;;;;;22.45;17.48;;;8.50;99.90;;;;;;4995334;28;20049;-72
2021/12/14 02:53:42;;;;;;;23.23;18.38;;;8.50;99.90;;;;;;5011540;28;20042;-72
2021/12/14 02:56:14;;;;;;;24.83;18.20;;;8.50;99.90;;;;;;4995150;28;20494;-72
2021/12/14 02:58:42;;;;;;;23.20;17.80;;;8.50;99.90;;;;;;4979104;28;20558;-72
2021/12/14 03:01:10;;;;;;;25.05;18.73;;;8.50;99.90;;;;;;4995210;28;20529;-71
2021/12/14 03:03:36;;;;;;;23.80;18.98;;;8.50;99.90;;;;;;4995415;28;20490;-71
2021/12/14 03:06:06;;;;;;;24.83;19.35;;;8.50;99.90;;;;;;4995364;28;20046;-71
2021/12/14 03:08:37;;;;;;;21.85;17.77;;;8.50;99.90;;;;;;4996932;28;20077;-71
2021/12/14 03:11:11;;;;;;;25.33;19.60;;;8.50;99.90;;;;;;4998683;28;20045;-71
2021/12/14 03:13:46;;;;;;;25.77;19.02;;;8.40;99.90;;;;;;4998888;28;20049;-71
2021/12/14 03:16:18;;;;;;;23.42;18.88;;;8.40;99.90;;;;;;4998501;28;20038;-72
2021/12/14 03:18:47;;;;;;;29.20;20.27;;;8.40;99.90;;;;;;4998723;28;20042;-72
2021/12/14 03:21:17;;;;;;;26.55;20.02;;;8.40;99.90;;;;;;4998675;28;20038;-72
2021/12/14 03:23:49;;;;;;;27.40;20.90;;;8.40;99.90;;;;;;4998327;28;20605;-72
2021/12/14 03:26:19;;;;;;;30.40;21.43;;;8.40;99.90;;;;;;4998575;28;20060;-72
2021/12/14 03:28:51;;;;;;;29.52;21.75;;;8.40;99.90;;;;;;4998323;28;20100;-72
2021/12/14 03:31:22;;;;;;;29.10;21.20;;;8.40;99.90;;;;;;4998617;28;20037;-72
2021/12/14 03:34:02;;;;;;;29.20;21.58;;;8.40;99.90;;;;;;4998173;28;20103;-72
2021/12/14 03:36:32;;;;;;;32.65;22.80;;;8.40;99.90;;;;;;4998265;28;20045;-72
2021/12/14 03:39:09;;;;;;;28.70;21.92;;;8.40;99.90;;;;;;4998430;28;20042;-71
2021/12/14 03:42:06;;;;;;;27.92;21.23;;;8.40;99.90;;;;;;4998356;28;20042;-72
2021/12/14 03:44:43;;;;;;;32.72;23.40;;;8.30;99.90;;;;;;4993184;28;20050;-72
2021/12/14 03:47:22;;;;;;;30.65;22.45;;;8.30;99.90;;;;;;5014476;28;20046;-72
2021/12/14 03:49:56;;;;;;;30.67;24.30;;;8.30;99.90;;;;;;4997946;28;20053;-72
2021/12/14 03:52:26;;;;;;;32.28;23.40;;;8.30;99.90;;;;;;4997872;28;20055;-72
2021/12/14 03:54:53;;;;;;;29.63;23.42;;;8.30;99.90;;;;;;4997953;28;20404;-72
2021/12/14 03:57:19;;;;;;;33.55;24.63;;;8.30;99.90;;;;;;4997793;28;20034;-72
2021/12/14 03:59:45;;;;;;;33.80;24.70;;;8.30;99.90;;;;;;4998035;28;20045;-72
2021/12/14 04:02:14;;;;;;;33.55;24.63;;;8.30;99.90;;;;;;4997987;28;20085;-72
2021/12/14 04:04:50;;;;;;;32.85;24.75;;;8.30;99.90;;;;;;4997587;28;20050;-72
2021/12/14 04:07:16;;;;;;;34.38;24.42;;;8.30;99.90;;;;;;4997656;28;20046;-72
2021/12/14 04:09:43;;;;;;;33.50;25.08;;;8.20;99.90;;;;;;4981613;28;20052;-72
2021/12/14 04:12:13;;;;;;;35.42;25.85;;;8.30;99.90;;;;;;4997790;28;20132;-72
2021/12/14 04:14:47;;;;;;;31.92;23.98;;;8.30;99.90;;;;;;4997283;28;20041;-72
2021/12/14 04:17:13;;;;;;;34.10;25.30;;;8.30;99.90;;;;;;4997427;28;20046;-72
2021/12/14 04:19:40;;;;;;;33.38;25.73;;;8.30;99.90;;;;;;4981085;28;20037;-72
2021/12/14 04:22:11;;;;;;;34.92;26.10;;;8.30;99.90;;;;;;4981364;28;20046;-72
2021/12/14 04:24:40;;;;;;;36.63;25.63;;;8.30;99.90;;;;;;4997233;28;20414;-72
2021/12/14 04:27:12;;;;;;;32.15;24.85;;;8.30;99.90;;;;;;4997486;28;20038;-72
2021/12/14 04:29:38;;;;;;;34.88;25.60;;;8.30;99.90;;;;;;4997461;28;20045;-72
2021/12/14 04:32:06;;;;;;;33.83;25.27;;;8.20;99.90;;;;;;4997114;28;20449;-72
2021/12/14 04:34:33;;;;;;;33.53;25.20;;;8.30;99.90;;;;;;4980799;28;20142;-72
2021/12/14 04:37:01;;;;;;;35.53;25.48;;;8.20;99.90;;;;;;4980759;28;20102;-72
2021/12/14 04:53:22;;;;;;;37.25;26.30;;;8.20;99.90;;;;;;4996671;28;20046;-72
2021/12/14 04:55:50;;;;;;;36.28;26.98;;;8.20;99.90;;;;;;4996721;28;20041;-72
2021/12/14 04:58:36;;;;;;;36.38;26.20;;;8.20;99.90;;;;;;4996574;28;20073;-72
2021/12/14 05:01:04;;;;;;;37.92;25.77;;;8.20;99.90;;;;;;4997139;28;20084;-72
2021/12/14 05:03:43;;;;;;;34.22;25.85;;;8.20;99.90;;;;;;4980405;28;20049;-72
2021/12/14 05:06:18;;;;;;;35.28;25.90;;;8.20;99.90;;;;;;4996654;28;20042;-71
2021/12/14 05:11:49;;;;;;;31.48;25.55;;;8.20;99.90;;;;;;4996530;28;20046;-71
2021/12/14 05:14:15;;;;;;;38.15;27.33;;;8.20;99.90;;;;;;4996333;28;20050;-71
2021/12/14 05:16:41;;;;;;;37.20;27.88;;;8.20;99.90;;;;;;5014416;28;20045;-71
2021/12/14 05:19:10;;;;;;;35.95;27.25;;;8.20;99.90;;;;;;4996578;28;20034;-71
2021/12/14 05:21:45;;;;;;;35.53;27.40;;;8.20;99.90;;;;;;5013940;28;20046;-71
2021/12/14 05:24:15;;;;;;;33.28;26.73;;;8.20;99.90;;;;;;5012958;28;20057;-71
2021/12/14 05:26:42;;;;;;;35.72;27.45;;;8.20;99.90;;;;;;4996259;28;20041;-71
2021/12/14 05:29:10;;;;;;;38.88;28.27;;;8.20;99.90;;;;;;4996646;28;20156;-71
2021/12/14 05:31:43;;;;;;;35.53;26.98;;;8.20;99.90;;;;;;4995806;28;20111;-71
2021/12/14 05:34:09;;;;;;;37.17;27.17;;;8.20;99.90;;;;;;4996077;28;20465;-71
2021/12/14 05:36:35;;;;;;;35.55;27.35;;;8.10;99.90;;;;;;4996264;28;20050;-71
2021/12/14 05:39:16;;;;;;;32.97;27.10;;;8.10;99.90;;;;;;4996397;28;20042;-71
2021/12/14 05:44:24;;;;;;;35.53;26.92;;;8.10;99.90;;;;;;4996317;28;20054;-71
2021/12/14 05:46:53;;;;;;;38.05;29.02;;;8.10;99.90;;;;;;4996122;28;20100;-71
2021/12/14 05:49:22;;;;;;;41.97;28.65;;;8.10;99.90;;;;;;4996161;28;20140;-71
2021/12/14 05:51:49;;;;;;;38.45;28.33;;;8.10;99.90;;;;;;4995944;28;20038;-71
2021/12/14 05:54:27;;;;;;;42.25;30.38;;;8.10;99.90;;;;;;4995838;28;20045;-71
2021/12/14 05:56:55;;;;;;;35.78;27.63;;;8.10;99.90;;;;;;4995885;28;20410;-71
2021/12/14 05:59:25;;;;;;;37.78;29.65;;;8.10;99.90;;;;;;4996032;28;20608;-71
2021/12/14 06:01:51;;;;;;;42.17;30.77;;;8.10;99.90;;;;;;5013481;28;20084;-71
2021/12/14 06:04:17;;;;;;;40.78;30.13;;;8.10;99.90;;;;;;5013411;28;20418;-71
2021/12/14 06:06:47;;;;;;;42.90;31.13;;;8.20;99.90;;;;;;4995794;28;20042;-71
2021/12/14 06:09:18;;;;;;;42.58;31.60;;;8.20;99.90;;;;;;4997175;28;20037;-71
2021/12/14 06:11:46;;;;;;;39.03;30.73;;;8.10;99.90;;;;;;4995770;28;20046;-71
2021/12/14 06:14:21;;;;;;;40.83;30.58;;;8.10;99.90;;;;;;4995566;28;20510;-71
2021/12/14 06:16:49;;;;;;;46.60;32.05;;;8.20;99.90;;;;;;4995873;28;20038;-71
2021/12/14 06:19:19;;;;;;;44.83;31.77;;;8.10;99.90;;;;;;4979652;28;20521;-71
2021/12/14 06:21:54;;;;;;;44.42;33.47;;;8.10;99.90;;;;;;4996033;28;20513;-71
2021/12/14 06:24:23;;;;;;;44.35;32.80;;;8.10;99.90;;;;;;4995953;28;20441;-71
2021/12/14 06:26:53;;;;;;;44.85;32.58;;;8.10;99.90;;;;;;4995627;28;20050;-71
2021/12/14 06:29:30;;;;;;;48.38;33.63;;;8.10;99.90;;;;;;4995509;28;20050;-71
2021/12/14 06:32:04;;;;;;;44.08;33.10;;;8.10;99.90;;;;;;4995661;28;20046;-71
2021/12/14 06:34:30;;;;;;;44.75;33.65;;;8.10;99.90;;;;;;4995858;28;20095;-71
2021/12/14 06:37:52;;;;;;;45.28;32.72;;;8.10;99.90;;;;;;4995571;28;20483;-71
2021/12/14 06:40:15;;;;;;;45.88;33.70;;;8.10;99.90;;;;;;4995564;28;20498;-71
2021/12/14 06:42:46;;;;;;;47.88;34.55;;;8.10;99.90;;;;;;4980032;28;20057;-71
2021/12/14 06:45:19;;;;;;;48.90;35.67;;;8.10;99.90;;;;;;4999360;28;20049;-71
2021/12/14 06:47:48;;;;;;;50.40;36.10;;;8.10;99.90;;;;;;4983105;28;20046;-71
2021/12/14 06:50:19;;;;;;;53.65;37.05;;;8.10;99.90;;;;;;4982969;28;20520;-71
2021/12/14 06:52:54;;;;;;;53.47;36.88;;;8.10;99.90;;;;;;4999496;28;20049;-71
2021/12/14 06:55:22;;;;;;;50.97;35.72;;;8.10;99.90;;;;;;4999129;28;20414;-71
2021/12/14 06:57:48;;;;;;;54.00;37.63;;;8.10;99.90;;;;;;4999046;28;20041;-71
2021/12/14 07:00:14;;;;;;;52.17;36.47;;;8.10;99.90;;;;;;4998926;28;20509;-71
2021/12/14 07:02:49;;;;;;;49.00;35.67;;;8.10;99.90;;;;;;5016603;28;20038;-71
2021/12/14 07:05:21;;;;;;;50.88;35.97;;;8.10;99.90;;;;;;4999290;28;20406;-71
2021/12/14 07:07:47;;;;;;;44.90;34.53;;;8.10;99.90;;;;;;4999177;28;20046;-71
2021/12/14 07:10:14;;;;;;;56.45;36.55;;;8.10;99.90;;;;;;4998810;28;20383;-70
2021/12/14 07:12:40;;;;;;;48.20;35.22;;;8.10;99.90;;;;;;4998978;28;20042;-71
2021/12/14 07:15:18;;;;;;;47.25;34.67;;;8.10;99.90;;;;;;4998735;28;20056;-70
2021/12/14 07:17:52;;;;;;;50.05;35.40;;;8.10;99.90;;;;;;4998948;28;20100;-71
2021/12/14 07:20:36;;;;;;;50.58;35.28;;;8.10;99.90;;;;;;4999000;28;20137;-71
2021/12/14 07:23:14;;;;;;;45.95;34.85;;;8.20;99.90;;;;;;4998546;28;20109;-71
2021/12/14 07:25:40;;;;;;;50.95;37.10;;;8.20;99.90;;;;;;4998529;28;20046;-71
2021/12/14 07:28:12;;;;;;;54.30;37.15;;;8.20;99.90;;;;;;4982518;28;20512;-71
2021/12/14 07:30:49;;;;;;;50.35;37.05;;;8.20;99.90;;;;;;4998795;28;20041;-70
2021/12/14 07:33:31;;;;;;;48.55;36.80;;;8.20;99.90;;;;;;4998360;28;20046;-70
2021/12/14 07:36:09;;;;;;;50.75;37.53;;;8.20;99.90;;;;;;4998187;28;20052;-70
2021/12/14 07:38:57;;;;;;;54.03;38.20;;;8.20;99.90;;;;;;4998185;28;20041;-70
2021/12/14 07:41:43;;;;;;;54.33;38.85;;;8.20;99.90;;;;;;4998259;28;20502;-71
2021/12/14 07:44:13;;;;;;;55.50;38.15;;;8.20;99.90;;;;;;4998468;28;20042;-71
2021/12/14 07:46:43;;;;;;;56.67;39.70;;;8.20;99.90;;;;;;4999175;28;20077;-71
2021/12/14 07:49:23;;;;;;;54.78;39.33;;;8.20;99.90;;;;;;4998110;28;20049;-72
2021/12/14 07:51:53;;;;;;;56.15;38.58;;;8.20;99.90;;;;;;4981890;28;20096;-71
2021/12/14 07:54:25;;;;;;;56.22;40.58;;;8.20;99.90;;;;;;4997797;28;20054;-70
2021/12/14 07:56:58;;;;;;;59.63;40.25;;;8.20;99.90;;;;;;4997933;28;20129;-70
2021/12/14 07:59:25;;;;;;;63.03;41.17;;;8.20;99.90;;;;;;4998024;28;20038;-70
2021/12/14 08:02:17;;;;;;;57.88;40.22;;;8.20;99.90;;;;;;4998045;28;20407;-70
2021/12/14 08:04:48;;;;;;;60.05;39.63;;;8.20;99.90;;;;;;4997810;28;20042;-70
2021/12/14 08:07:36;;;;;;;58.83;40.78;;;8.20;99.90;;;;;;5015385;28;20042;-70
2021/12/14 08:10:30;;;;;;;57.63;39.20;;;8.20;99.90;;;;;;5015528;28;20095;-70
2021/12/14 08:12:57;;;;;;;;;;;8.20;99.90;;;;;;4998110;28;20057;-70
2021/12/14 08:15:26;;;;;;;60.72;39.53;;;8.20;99.90;;;;;;4997429;28;20016;-70
2021/12/14 08:18:13;;;;;;;62.25;40.22;;;8.20;99.90;;;;;;5014186;28;20053;-70
2021/12/14 08:20:54;;;;;;;59.30;39.42;;;8.30;99.90;;;;;;4997637;28;20121;-70
2021/12/14 08:23:28;;;;;;;56.65;39.53;;;8.30;99.90;;;;;;4997802;28;20038;-70
2021/12/14 08:25:59;;;;;;;62.80;41.28;;;8.30;99.90;;;;;;4997603;28;20049;-70
2021/12/14 08:28:25;;;;;;;56.10;40.50;;;8.30;99.90;;;;;;4981372;28;20049;-71
2021/12/14 08:31:05;;;;;;;61.10;39.58;;;8.30;99.90;;;;;;4997449;28;20042;-70
2021/12/14 08:33:32;;;;;;;54.58;39.50;;;8.30;99.90;;;;;;4997612;28;20053;-70
2021/12/14 08:36:03;;;;;;;60.70;41.42;;;8.30;99.90;;;;;;4997023;28;20052;-70
2021/12/14 08:38:32;;;;;;;56.40;40.47;;;8.30;99.90;;;;;;5014719;28;20045;-70
2021/12/14 08:41:08;;;;;;;54.88;40.00;;;8.30;99.90;;;;;;4997160;28;20041;-70
2021/12/14 08:43:35;;;;;;;58.60;40.42;;;8.30;99.90;;;;;;4997039;28;20414;-70
2021/12/14 08:46:03;;;;;;;52.08;39.47;;;8.30;99.90;;;;;;4997116;28;20080;-70
2021/12/14 08:48:54;;;;;;;57.35;39.45;;;8.30;99.90;;;;;;4996907;28;20383;-70
2021/12/14 08:51:24;;;;;;;55.13;40.63;;;8.30;99.90;;;;;;4985607;28;20418;-70
2021/12/14 08:54:00;;;;;;;55.08;40.60;;;8.30;99.90;;;;;;4996767;28;20050;-70
2021/12/14 08:56:31;;;;;;;60.10;39.45;;;8.30;99.90;;;;;;4996954;28;20050;-70
2021/12/14 08:58:57;;;;;;;51.55;37.80;;;8.30;99.90;;;;;;4981292;28;20049;-70
2021/12/14 09:01:26;;;;;;;55.75;39.65;;;8.30;99.90;;;;;;4996676;28;20046;-70
2021/12/14 09:04:06;;;;;;;50.28;38.22;;;8.40;99.90;;;;;;4996682;28;20075;-70
2021/12/14 09:06:35;;;;;;;53.60;37.83;;;8.40;99.90;;;;;;4995972;28;20041;-70
2021/12/14 09:09:05;;;;;;;50.80;38.05;;;8.40;99.90;;;;;;4996473;28;20056;-70
2021/12/14 09:11:36;;;;;;;56.55;38.42;;;8.40;99.90;;;;;;4980644;28;20049;-70
2021/12/14 09:14:04;;;;;;;48.72;37.40;;;8.40;99.90;;;;;;4996288;28;20038;-70
2021/12/14 09:16:33;;;;;;;53.25;38.95;;;8.40;99.90;;;;;;4980164;28;20128;-70
2021/12/14 09:19:04;;;;;;;51.38;37.95;;;8.40;99.90;;;;;;4996645;28;20065;-70
2021/12/14 09:21:34;;;;;;;50.00;37.78;;;8.40;99.90;;;;;;4996379;28;20052;-70
2021/12/14 09:24:05;;;;;;;53.45;38.65;;;8.40;99.90;;;;;;5014091;28;20037;-70
2021/12/14 09:26:35;;;;;;;52.40;37.42;;;8.40;99.90;;;;;;4996582;28;20120;-70
2021/12/14 09:29:04;;;;;;;53.67;37.67;;;8.40;99.90;;;;;;4996330;28;20052;-70
2021/12/14 09:31:32;;;;;;;53.03;38.53;;;8.40;99.90;;;;;;4996182;28;20085;-70
2021/12/14 09:33:59;;;;;;;56.50;39.95;;;8.40;99.90;;;;;;4996148;28;20041;-70
2021/12/14 09:36:29;;;;;;;53.85;39.40;;;8.50;99.90;;;;;;4996112;28;20042;-70
2021/12/14 09:39:07;;;;;;;55.45;39.03;;;8.50;99.90;;;;;;4996260;28;20060;-70
2021/12/14 09:41:33;;;;;;;54.30;39.10;;;8.50;99.90;;;;;;4996403;28;20144;-70
2021/12/14 09:44:02;;;;;;;60.63;41.38;;;8.50;99.90;;;;;;4996197;28;20121;-70
2021/12/14 09:46:28;;;;;;;59.28;40.03;;;8.50;99.90;;;;;;4996478;28;20086;-72
2021/12/14 09:48:57;;;;;;;58.70;41.22;;;8.50;99.90;;;;;;4996201;28;20525;-71
2021/12/14 09:51:29;;;;;;;63.42;42.25;;;8.50;99.90;;;;;;4996181;28;20049;-72
2021/12/14 09:53:56;;;;;;;58.50;40.33;;;8.50;99.90;;;;;;4995804;28;20049;-72
2021/12/14 09:56:27;;;;;;;60.33;40.17;;;8.50;99.90;;;;;;4995843;28;20049;-72
2021/12/14 09:58:59;;;;;;;61.47;40.10;;;8.50;99.90;;;;;;4996141;28;20037;-72
2021/12/14 10:01:59;;;;;;;61.63;41.67;;;8.50;99.90;;;;;;4995893;28;20042;-71
2021/12/14 10:04:30;;;;;;;54.58;38.42;;;8.50;99.90;;;;;;4975200;28;20100;-72
2021/12/14 10:06:58;;;;;;;62.20;39.33;;;8.50;99.90;;;;;;4996206;28;20041;-71
2021/12/14 10:09:27;;;;;;;57.67;38.97;;;8.50;99.90;;;;;;4996068;28;20125;-72
2021/12/14 10:14:26;;;;;;;53.72;37.33;;;8.50;99.90;;;;;;4995932;28;20053;-72
2021/12/14 10:16:52;;;;;;;68.35;40.25;;;8.50;99.90;;;;;;4997532;28;20042;-72
2021/12/14 10:19:22;;;;;;;57.40;38.78;;;8.50;99.90;;;;;;4999853;28;20521;-72
2021/12/14 10:21:56;;;;;;;52.53;35.42;;;8.50;99.90;;;;;;4999621;28;20113;-72
2021/12/14 10:24:23;;;;;;;54.65;36.50;;;8.60;99.90;;;;;;4999839;28;20046;-72
2021/12/14 10:26:53;;;;;;;53.72;35.10;;;8.60;99.90;;;;;;4999588;28;20041;-72
2021/12/14 10:29:20;;;;;;;51.67;36.45;;;8.60;99.90;;;;;;4983547;28;20038;-72
2021/12/14 10:31:50;;;;;;;51.33;34.53;;;8.60;99.90;;;;;;4999476;28;20041;-72
2021/12/14 10:34:24;;;;;;;48.35;33.97;;;8.60;99.90;;;;;;4999378;28;20041;-72
2021/12/14 10:36:59;;;;;;;47.45;33.90;;;8.60;99.90;;;;;;4999377;28;20042;-72
2021/12/14 10:44:45;;;;;;;58.70;36.38;;;8.60;99.90;;;;;;4999686;28;20046;-72
2021/12/14 10:47:13;;;;;;;61.22;36.40;;;8.60;99.90;;;;;;4999439;28;20042;-72
2021/12/14 10:49:40;;;;;;;59.85;36.10;;;8.60;99.90;;;;;;4999220;28;20037;-72
2021/12/14 10:52:14;;;;;;;62.95;37.30;;;8.50;99.90;;;;;;4999310;28;20486;-72
2021/12/14 10:54:43;;;;;;;63.08;36.75;;;8.50;99.90;;;;;;4999196;28;20038;-72
2021/12/14 10:57:13;;;;;;;63.83;37.35;;;8.50;99.90;;;;;;4998892;28;20064;-73
2021/12/14 10:59:43;;;;;;;69.60;39.75;;;8.50;99.90;;;;;;4982763;28;20487;-72
2021/12/14 11:02:09;;;;;;;69.07;39.30;;;8.50;99.90;;;;;;4999655;28;20042;-72
2021/12/14 11:04:51;;;;;;;64.18;39.05;;;8.50;99.90;;;;;;4998780;28;20042;-72
2021/12/14 11:07:22;;;;;;;68.68;38.88;;;8.50;99.90;;;;;;4998754;28;20506;-72
2021/12/14 11:09:53;;;;;;;59.53;37.00;;;8.50;99.90;;;;;;4998645;28;20486;-72
2021/12/14 11:12:31;;;;;;;69.18;38.22;;;8.50;99.90;;;;;;4998724;28;20597;-72
2021/12/14 11:15:04;;;;;;;59.83;35.60;;;8.50;99.90;;;;;;4998391;28;20125;-71
2021/12/14 11:20:34;;;;;;;59.17;35.42;;;8.50;99.90;;;;;;4998508;28;20147;-72
2021/12/14 11:23:27;;;;;;;57.08;35.25;;;8.60;99.90;;;;;;4999315;28;20038;-72
2021/12/14 11:26:01;;;;;;;61.47;36.90;;;8.60;99.90;;;;;;4998500;28;20077;-72
2021/12/14 11:28:34;;;;;;;62.50;36.00;;;8.60;99.90;;;;;;4997716;28;20052;-72
2021/12/14 11:31:11;;;;;;;55.88;34.75;;;8.60;99.90;;;;;;4998351;28;20494;-72
2021/12/14 11:33:43;;;;;;;64.10;36.03;;;8.60;99.90;;;;;;4998571;28;20130;-72
2021/12/14 11:36:19;;;;;;;59.55;36.42;;;8.60;99.90;;;;;;4998427;28;20038;-72
2021/12/14 11:38:52;;;;;;;62.88;36.17;;;8.70;99.90;;;;;;4998214;28;20508;-72
2021/12/14 11:41:50;;;;;;;60.30;36.22;;;8.70;99.90;;;;;;4998203;28;20053;-72
2021/12/14 11:44:38;;;;;;;60.97;33.83;;;8.70;99.90;;;;;;4979913;28;20088;-72
2021/12/14 11:50:11;;;;;;;56.53;34.25;;;8.70;99.90;;;;;;4998252;28;20053;-72
2021/12/14 11:52:49;;;;;;;60.00;34.53;;;8.70;99.90;;;;;;4981700;28;20038;-72
2021/12/14 11:55:18;;;;;;;55.42;33.45;;;8.70;99.90;;;;;;4997800;28;20049;-72
2021/12/14 11:57:44;;;;;;;49.25;30.63;;;8.70;99.90;;;;;;4997864;28;20490;-72
2021/12/14 12:00:15;;;;;;;62.20;33.72;;;8.70;99.90;;;;;;4997809;28;20042;-72
2021/12/14 12:02:41;;;;;;;54.08;31.85;;;8.70;99.90;;;;;;4997759;28;20410;-73
2021/12/14 12:05:16;;;;;;;59.75;32.47;;;8.80;99.90;;;;;;4997640;28;20044;-73
2021/12/14 12:10:40;;;;;;;59.03;32.92;;;8.70;99.90;;;;;;4997591;28;20418;-72
2021/12/14 12:13:05;;;;;;;52.90;30.98;;;8.70;99.90;;;;;;4981766;28;20046;-72
2021/12/14 12:15:39;;;;;;;53.67;30.70;;;8.80;99.90;;;;;;4997491;28;20469;-73
2021/12/14 12:18:05;;;;;;;51.97;29.45;;;8.80;99.90;;;;;;4997561;28;20038;-73
2021/12/14 12:20:45;;;;;;;51.10;30.10;;;8.80;99.90;;;;;;4997489;28;20449;-72
2021/12/14 12:23:26;;;;;;;54.78;30.25;;;8.80;99.90;;;;;;4997767;28;20041;-72
2021/12/14 12:26:00;;;;;;;55.47;30.13;;;8.80;99.90;;;;;;4998056;28;20054;-72
2021/12/14 12:28:38;;;;;;;47.72;27.92;;;8.80;99.90;;;;;;4997290;28;20557;-72
2021/12/14 12:31:15;;;;;;;51.97;30.00;;;8.80;99.90;;;;;;4997256;28;20050;-72
2021/12/14 12:33:45;;;;;;;59.42;31.05;;;8.80;99.90;;;;;;4997229;28;20053;-72
2021/12/14 12:36:16;;;;;;;55.20;29.45;;;8.80;99.90;;;;;;4997387;28;20037;-73
2021/12/14 12:38:47;;;;;;;57.22;30.35;;;8.80;99.90;;;;;;4997411;28;20104;-72
2021/12/14 12:41:23;;;;;;;48.55;28.95;;;8.80;99.90;;;;;;4997026;28;20048;-72
2021/12/14 12:44:03;;;;;;;57.05;29.45;;;8.80;99.90;;;;;;4996934;28;20042;-72
2021/12/14 12:46:49;;;;;;;54.45;29.75;;;8.90;99.90;;;;;;4996980;28;20041;-72
2021/12/14 12:49:16;;;;;;;56.08;31.17;;;8.90;99.90;;;;;;4997107;28;20077;-72
2021/12/14 12:51:55;;;;;;;55.30;29.88;;;8.90;99.90;;;;;;4996814;28;20453;-72
2021/12/14 12:54:32;;;;;;;52.58;29.25;;;8.90;99.90;;;;;;4997185;28;20053;-72
2021/12/14 12:57:13;;;;;;;54.30;29.98;;;8.90;99.90;;;;;;4996631;28;20042;-73
2021/12/14 12:59:50;;;;;;;56.40;31.00;;;8.90;99.90;;;;;;4997132;28;20510;-72
2021/12/14 13:02:30;;;;;;;57.60;31.25;;;8.90;99.90;;;;;;4996899;28;20064;-72
2021/12/14 13:05:13;;;;;;;52.83;29.48;;;9.00;99.90;;;;;;4996841;28;20147;-72
2021/12/14 13:07:43;;;;;;;70.13;33.88;;;9.00;99.90;;;;;;4996784;28;20451;-72
2021/12/14 13:10:22;;;;;;;70.43;32.85;;;8.90;99.90;;;;;;4996578;28;20041;-72
2021/12/14 13:12:51;;;;;;;68.07;34.75;;;8.90;99.90;;;;;;4996744;28;20041;-72
2021/12/14 13:15:41;;;;;;;62.25;31.58;;;8.90;99.90;;;;;;4996166;28;20073;-72
2021/12/14 13:18:22;;;;;;;70.72;34.42;;;9.00;99.90;;;;;;4996426;28;20053;-72
2021/12/14 13:20:51;;;;;;;56.28;31.50;;;9.00;99.90;;;;;;4996547;28;20042;-72
2021/12/14 13:23:22;;;;;;;61.85;32.15;;;9.00;99.90;;;;;;4996273;28;20042;-72
2021/12/14 13:25:48;;;;;;;61.42;32.40;;;9.00;99.90;;;;;;4996269;28;20042;-72
2021/12/14 13:28:15;;;;;;;59.75;30.88;;;9.10;99.90;;;;;;4996396;28;20042;-72
2021/12/14 13:30:43;;;;;;;64.63;33.33;;;9.10;99.90;;;;;;4996380;28;20601;-72
2021/12/14 13:33:27;;;;;;;61.05;30.23;;;9.00;99.90;;;;;;4996705;28;20493;-72
2021/12/14 13:35:53;;;;;;;56.85;31.10;;;9.10;99.90;;;;;;4996363;28;20125;-72
2021/12/14 13:38:19;;;;;;;53.60;28.95;;;9.10;99.90;;;;;;4995984;28;20038;-72
2021/12/14 13:40:47;;;;;;;54.63;29.27;;;9.10;99.90;;;;;;4996463;28;20184;-72
2021/12/14 13:43:21;;;;;;;53.08;28.20;;;9.10;99.90;;;;;;4996045;28;20494;-72
2021/12/14 13:45:53;;;;;;;49.17;27.73;;;9.10;99.90;;;;;;4995917;28;20124;-72
2021/12/14 13:48:26;;;;;;;45.60;27.15;;;9.10;99.90;;;;;;5012272;28;20049;-72